| Date Time MST |
Temp °F |
RH % |
DewPt °F |
Wind mph |
Dir ° |
Gust mph |
Dir ° |
Press in Hg |
Solar W/m^2 |
Prec in |
|---|---|---|---|---|---|---|---|---|---|---|
| 2026-05-05 03:45 | 33.4 | 94.4 | 32.0 | 4.4 | 309 | 5.2 | 305 | 24.812 | 0.9 | 0.00 |
| 2026-05-05 03:40 | 33.4 | 94.3 | 32.0 | 4.8 | 298 | 5.6 | 305 | 24.815 | 0.9 | 0.00 |
| 2026-05-05 03:35 | 33.5 | 94.3 | 32.0 | 4.2 | 280 | 5.0 | 273 | 24.817 | 1.0 | 0.01 |
| 2026-05-05 03:30 | 33.5 | 94.4 | 32.1 | 4.6 | 268 | 6.5 | 297 | 24.813 | 1.0 | 0.00 |
| 2026-05-05 03:25 | 33.5 | 94.4 | 32.1 | 5.8 | 298 | 8.5 | 303 | 24.811 | 1.0 | 0.00 |
| 2026-05-05 03:20 | 33.5 | 94.4 | 32.0 | 6.5 | 305 | 8.1 | 292 | 24.807 | 1.0 | 0.00 |
| 2026-05-05 03:15 | 33.6 | 94.4 | 32.2 | 5.1 | 283 | 6.5 | 286 | 24.801 | 1.0 | 0.01 |
| 2026-05-05 03:10 | 33.7 | 94.5 | 32.2 | 4.8 | 291 | 6.4 | 282 | 24.796 | 1.0 | 0.00 |
| 2026-05-05 03:05 | 33.6 | 94.5 | 32.2 | 4.3 | 287 | 5.8 | 293 | 24.793 | 1.0 | 0.00 |
| 2026-05-05 03:00 | 33.6 | 94.3 | 32.1 | 4.0 | 292 | 4.8 | 307 | 24.798 | 1.0 | 0.01 |
| 2026-05-05 02:55 | 33.6 | 94.1 | 32.1 | 5.4 | 309 | 6.7 | 303 | 24.799 | 1.0 | 0.00 |
| 2026-05-05 02:50 | 33.7 | 93.8 | 32.2 | 6.1 | 318 | 7.6 | 308 | 24.786 | 1.0 | 0.00 |
| 2026-05-05 02:45 | 34.1 | 93.5 | 32.4 | 7.7 | 296 | 10.0 | 307 | 24.791 | 1.1 | 0.01 |
| 2026-05-05 02:40 | 34.4 | 93.2 | 32.7 | 6.4 | 302 | 8.7 | 318 | 24.794 | 1.2 | 0.00 |
| 2026-05-05 02:35 | 34.8 | 92.9 | 32.9 | 8.6 | 315 | 10.8 | 306 | 24.796 | 1.0 | 0.01 |
| 2026-05-05 02:30 | 35.1 | 92.5 | 33.2 | 8.5 | 340 | 10.6 | 337 | 24.792 | 0.9 | 0.00 |
| 2026-05-05 02:25 | 35.5 | 92.1 | 33.4 | 9.6 | 326 | 12.3 | 341 | 24.791 | 0.7 | 0.01 |
| 2026-05-05 02:20 | 36.0 | 91.5 | 33.8 | 9.9 | 337 | 13.5 | 9 | 24.791 | 0.7 | 0.00 |
| 2026-05-05 02:15 | 36.4 | 90.9 | 34.0 | 12.3 | 7 | 16.3 | 345 | 24.791 | 0.8 | 0.01 |
| 2026-05-05 02:10 | 36.9 | 90.2 | 34.3 | 13.7 | 344 | 16.6 | 348 | 24.790 | 0.9 | 0.01 |
| 2026-05-05 02:05 | 37.4 | 90.1 | 34.7 | 11.2 | 347 | 16.4 | 353 | 24.788 | 1.0 | 0.00 |
| 2026-05-05 02:00 | 37.6 | 89.9 | 34.9 | 9.9 | 355 | 14.4 | 345 | 24.786 | 0.9 | 0.00 |
| 2026-05-05 01:55 | 37.8 | 89.5 | 35.0 | 9.1 | 352 | 11.8 | 348 | 24.784 | 0.8 | 0.02 |
| 2026-05-05 01:50 | 37.9 | 89.0 | 35.0 | 10.2 | 346 | 12.9 | 359 | 24.784 | 0.7 | 0.00 |
| 2026-05-05 01:45 | 38.4 | 89.4 | 35.5 | 11.0 | 12 | 13.5 | 2 | 24.784 | 0.7 | 0.02 |
| 2026-05-05 01:40 | 39.1 | 90.6 | 36.6 | 11.0 | 11 | 15.4 | 4 | 24.784 | 0.9 | 0.00 |
| 2026-05-05 01:35 | 39.4 | 91.5 | 37.1 | 8.5 | 341 | 11.9 | 354 | 24.782 | 1.0 | 0.01 |
| 2026-05-05 01:30 | 39.5 | 91.4 | 37.2 | 8.8 | 344 | 11.7 | 359 | 24.779 | 1.0 | 0.01 |
| 2026-05-05 01:25 | 39.6 | 91.7 | 37.4 | 7.9 | 354 | 10.5 | 349 | 24.777 | 0.7 | 0.02 |
| 2026-05-05 01:20 | 39.8 | 91.6 | 37.5 | 8.1 | 355 | 10.4 | 340 | 24.777 | 0.6 | 0.00 |
| Date Time MST |
Temp °C |
RH % |
DewPt °C |
Wind m/s |
Dir ° |
Gust m/s |
Dir ° |
Press hPa |
Solar W/m^2 |
Prec mm |
|---|---|---|---|---|---|---|---|---|---|---|
| 2026-05-05 03:45 | 0.8 | 94.4 | -0.0 | 2.0 | 309 | 2.3 | 305 | 840.24 | 0.9 | 0.00 |
| 2026-05-05 03:40 | 0.8 | 94.3 | -0.0 | 2.2 | 298 | 2.5 | 305 | 840.34 | 0.9 | 0.00 |
| 2026-05-05 03:35 | 0.8 | 94.3 | 0.0 | 1.9 | 280 | 2.2 | 273 | 840.38 | 1.0 | 0.25 |
| 2026-05-05 03:30 | 0.8 | 94.4 | 0.0 | 2.0 | 268 | 2.9 | 297 | 840.27 | 1.0 | 0.00 |
| 2026-05-05 03:25 | 0.8 | 94.4 | 0.0 | 2.6 | 298 | 3.8 | 303 | 840.18 | 1.0 | 0.00 |
| 2026-05-05 03:20 | 0.8 | 94.4 | 0.0 | 2.9 | 305 | 3.6 | 292 | 840.05 | 1.0 | 0.00 |
| 2026-05-05 03:15 | 0.9 | 94.4 | 0.1 | 2.3 | 283 | 2.9 | 286 | 839.86 | 1.0 | 0.25 |
| 2026-05-05 03:10 | 0.9 | 94.5 | 0.1 | 2.1 | 291 | 2.8 | 282 | 839.69 | 1.0 | 0.00 |
| 2026-05-05 03:05 | 0.9 | 94.5 | 0.1 | 1.9 | 287 | 2.6 | 293 | 839.59 | 1.0 | 0.00 |
| 2026-05-05 03:00 | 0.9 | 94.3 | 0.1 | 1.8 | 292 | 2.2 | 307 | 839.75 | 1.0 | 0.25 |
| 2026-05-05 02:55 | 0.9 | 94.1 | 0.1 | 2.4 | 309 | 3.0 | 303 | 839.78 | 1.0 | 0.00 |
| 2026-05-05 02:50 | 1.0 | 93.8 | 0.1 | 2.7 | 318 | 3.4 | 308 | 839.34 | 1.0 | 0.00 |
| 2026-05-05 02:45 | 1.2 | 93.5 | 0.2 | 3.5 | 296 | 4.5 | 307 | 839.51 | 1.1 | 0.25 |
| 2026-05-05 02:40 | 1.3 | 93.2 | 0.4 | 2.9 | 302 | 3.9 | 318 | 839.61 | 1.2 | 0.00 |
| 2026-05-05 02:35 | 1.5 | 92.9 | 0.5 | 3.8 | 315 | 4.8 | 306 | 839.69 | 1.0 | 0.25 |
| 2026-05-05 02:30 | 1.7 | 92.5 | 0.7 | 3.8 | 340 | 4.7 | 337 | 839.54 | 0.9 | 0.00 |
| 2026-05-05 02:25 | 1.9 | 92.1 | 0.8 | 4.3 | 326 | 5.5 | 341 | 839.52 | 0.7 | 0.25 |
| 2026-05-05 02:20 | 2.2 | 91.5 | 1.0 | 4.4 | 337 | 6.0 | 9 | 839.52 | 0.7 | 0.00 |
| 2026-05-05 02:15 | 2.4 | 90.9 | 1.1 | 5.5 | 7 | 7.3 | 345 | 839.51 | 0.8 | 0.25 |
| 2026-05-05 02:10 | 2.7 | 90.2 | 1.3 | 6.1 | 344 | 7.4 | 348 | 839.48 | 0.9 | 0.25 |
| 2026-05-05 02:05 | 3.0 | 90.1 | 1.5 | 5.0 | 347 | 7.3 | 353 | 839.42 | 1.0 | 0.00 |
| 2026-05-05 02:00 | 3.1 | 89.9 | 1.6 | 4.4 | 355 | 6.4 | 345 | 839.34 | 0.9 | 0.00 |
| 2026-05-05 01:55 | 3.2 | 89.5 | 1.7 | 4.1 | 352 | 5.3 | 348 | 839.29 | 0.8 | 0.51 |
| 2026-05-05 01:50 | 3.3 | 89.0 | 1.7 | 4.5 | 346 | 5.8 | 359 | 839.29 | 0.7 | 0.00 |
| 2026-05-05 01:45 | 3.5 | 89.4 | 2.0 | 4.9 | 12 | 6.0 | 2 | 839.27 | 0.7 | 0.51 |
| 2026-05-05 01:40 | 3.9 | 90.6 | 2.5 | 4.9 | 11 | 6.9 | 4 | 839.28 | 0.9 | 0.00 |
| 2026-05-05 01:35 | 4.1 | 91.5 | 2.8 | 3.8 | 341 | 5.3 | 354 | 839.23 | 1.0 | 0.25 |
| 2026-05-05 01:30 | 4.2 | 91.4 | 2.9 | 3.9 | 344 | 5.2 | 359 | 839.10 | 1.0 | 0.25 |
| 2026-05-05 01:25 | 4.2 | 91.7 | 3.0 | 3.5 | 354 | 4.7 | 349 | 839.03 | 0.7 | 0.51 |
| 2026-05-05 01:20 | 4.3 | 91.6 | 3.1 | 3.6 | 355 | 4.6 | 340 | 839.05 | 0.6 | 0.00 |